Flight Track Log - Related Links

Times and Time Zones

All times are in EDT time to prevent confusion due to time zone crossing. See the UCA3599 flight status page for this flight to view local times or setup timezone preferences in your user account.

Time Position Orientation Groundspeed Altitude Reporting Facility
EDT Latitude Longitude Course Direction KTS MPH feet Rate Location/Type
Sat 06:10:20 AM 37.2986 -79.9944 113° Southeast 137 158 3,000  Level Washington Center
Sat 06:11:31 AM 37.2822 -79.9461 113° Southeast 187 215 4,900 1,534 Climbing Washington Center
Sat 06:12:33 AM 37.3186 -79.9006 45° Northeast 187 215 6,400 1,475 Climbing Washington Center
Sat 06:13:33 AM 37.3544 -79.8494 49° Northeast 196 226 7,900 1,400 Climbing Washington Center
Sat 06:14:33 AM 37.3947 -79.7975 46° Northeast 211 243 9,200 1,250 Climbing Washington Center
Sat 06:15:33 AM 37.4442 -79.7286 48° Northeast 222 255 10,400 893 Climbing Washington Center
Sat 06:16:34 AM 37.4886 -79.6667 48° Northeast 243 280 11,000 290 Climbing Washington Center
Sat 06:17:37 AM 37.5392 -79.5986 47° Northeast 262 302 11,000  Level Washington Center
Sat 06:18:36 AM 37.5967 -79.5361 41° Northeast 273 314 11,000  Level Washington Center
Sat 06:19:36 AM 37.6578 -79.4789 37° Northeast 272 313 11,000  Level Washington Center
Sat 06:20:37 AM 37.7194 -79.4211 37° Northeast 273 314 11,000  Level Washington Center
Sat 06:21:37 AM 37.7783 -79.3647 37° Northeast 281 323 11,000  Level Washington Center
Sat 06:22:41 AM 37.8500 -79.2956 37° Northeast 278 320 11,000  Level Washington Center
Sat 06:23:42 AM 37.9089 -79.2400 37° Northeast 273 314 11,000 -50 Level Washington Center
Sat 06:24:42 AM 37.9678 -79.1828 37° Northeast 273 314 10,900 -50 Descending Washington Center
Sat 06:25:43 AM 38.0275 -79.1269 36° Northeast 273 314 10,900 49 Level Washington Center
Sat 06:26:44 AM 38.0872 -79.0678 38° Northeast 276 318 11,000 50 Climbing Washington Center
Sat 06:27:43 AM 38.1583 -78.9994 37° Northeast 276 318 11,000  Level Washington Center
Sat 06:28:44 AM 38.2189 -78.9414 37° Northeast 276 318 11,000  Level Washington Center
Sat 06:29:46 AM 38.2808 -78.8800 38° Northeast 286 329 11,000  Level Washington Center
Sat 06:30:48 AM 38.3489 -78.8136 37° Northeast 286 329 11,000  Level Washington Center
Sat 06:31:49 AM 38.4108 -78.7525 38° Northeast 285 328 11,000  Level Washington Center
Sat 06:32:48 AM 38.4722 -78.6922 38° Northeast 281 323 11,000  Level Washington Center
Sat 06:33:49 AM 38.5319 -78.6331 38° Northeast 276 318 11,000  Level Washington Center
Sat 06:34:50 AM 38.5931 -78.5742 37° Northeast 275 316 11,000  Level Washington Center
Sat 06:35:51 AM 38.6500 -78.5108 41° Northeast 277 319 11,000 -435 Level Washington Center
Sat 06:36:54 AM 38.6769 -78.4067 72° East 308 354 10,100 -960 Descending Washington Center
Sat 06:37:56 AM 38.7044 -78.3031 71° East 310 357 9,000 -878 Descending Washington Center
Sat 06:38:57 AM 38.7606 -78.2517 36° Northeast 250 288 8,300 -1,091 Descending Washington Center
Sat 06:39:57 AM 38.8283 -78.2186 21° North 253 291 6,800 -1,131 Descending Washington Center
Sat 06:40:59 AM 38.8697 -78.1475 53° Northeast 268 308 6,000 -397 Descending Washington Center
Sat 06:41:58 AM 38.8933 -78.0547 72° East 271 312 6,000  Level Washington Center
Sat 06:43:02 AM 38.9164 -77.9633 72° East 270 311 6,000 48 Level Washington Center
Sat 06:44:03 AM 38.9442 -77.8539 72° East 270 311 6,100 50 Climbing Washington Center
Sat 06:45:03 AM 38.9664 -77.7614 73° East 275 316 6,100  Level Washington Center
Sat 06:46:04 AM 38.9583 -77.6658 96° East 274 315 6,100 -122 Level Washington Center
Sat 06:46:41 AM 38.9833 -77.6000 64° Northeast 265 305 5,900 -680 Descending Potomac TRACON
Sat 06:47:41 AM 39.0333 -77.5667 27° Northeast 259 298 5,000 -895 Descending Potomac TRACON
Sat 06:48:35 AM 39.0833 -77.5500 15° North 239 275 4,200 -1,000 Descending Potomac TRACON
Sat 06:49:35 AM 39.0833 -77.4833 90° East 227 261 3,100 -1,050 Descending Potomac TRACON
Sat 06:50:35 AM 39.0500 -77.4667 159° South 135 155 2,100 -950 Descending Potomac TRACON
Sat 06:51:35 AM 39.0167 -77.4667 180° South 101 116 1,200 -750 Descending Potomac TRACON
Sat 06:52:35 AM 38.9833 -77.4667 180° South 101 116 600 -338 Descending Potomac TRACON
Sat 06:54:15 AM 38.9581 -77.4739 193° South 73 84 300 -112 Descending Washington Center
Sat 06:55:16 AM 38.9503 -77.4733 177° South 44 51 300  Level Washington Center
Sat 06:56:17 AM 38.9503 -77.4675 90° East 27 31 300  Level Washington Center
Sat 06:57:18 AM 38.9511 -77.4594 82° East 23 26 300  Level Washington Center
Sat 06:58:18 AM 38.9500 -77.4606 218° Southwest 12 14 300  Level Washington Center
Sat 06:59:22 AM 38.9500 -77.4611 270° West 5 6 300  Level Washington Center
Sat 07:00:23 AM 38.9472 -77.4553 121° Southeast 7 8 300  Level Washington Center
Sat 07:01:24 AM 38.9569 -77.4419 47° Northeast 30 35 300  Level Washington Center
Sat 07:02:26 AM 38.9422 -77.4389 171° South 40 46 300  Level Washington Center
Sat 07:03:26 AM 38.9464 -77.4414 335° Northwest 39 45 300  Level Washington Center
Sat 07:04:27 AM 38.9478 -77.4406 25° Northeast 17 20 300  Level Washington Center
Sat 07:05:28 AM 38.9486 -77.4408 345° North 7 8 300  Level Washington Center
Sat 07:06:32 AM 38.9483 -77.4408 180° South 4 5 300  Level Washington Center

Login

Don't have an account? Register now (free) for customized features, flight alerts, and more!